Time;durP1;ratioP1;P1;durP2;ratioP2;P2;SDS_P1;SDS_P2;PMS_P1;PMS_P2;Temp;Humidity;BMP_temperature;BMP_pressure;BME280_temperature;BME280_humidity;BME280_pressure;Samples;Min_cycle;Max_cycle;Signal;HPM_P1;HPM_P2
2021/05/22 00:00:27;;;;;;;2.60;1.13;;;;;;;;;;5052740;28;20052;-59
2021/05/22 00:03:13;;;;;;;1.70;1.00;;;;;;;;;;5039836;28;20063;-59
2021/05/22 00:05:40;;;;;;;1.83;0.98;;;;;;;;;;5048957;28;20052;-59
2021/05/22 00:08:06;;;;;;;2.25;0.90;;;;;;;;;;5051977;28;20096;-59
2021/05/22 00:10:33;;;;;;;1.70;0.90;;;;;;;;;;5051698;28;20060;-59
2021/05/22 00:12:59;;;;;;;4.40;1.55;;;;;;;;;;5049952;28;20114;-59
2021/05/22 00:15:26;;;;;;;2.80;0.98;;;;;;;;;;5052842;28;20052;-59
2021/05/22 00:17:52;;;;;;;2.63;1.00;;;;;;;;;;5052057;28;20045;-59
2021/05/22 00:20:19;;;;;;;1.95;0.90;;;;;;;;;;5051744;28;20068;-59
2021/05/22 00:22:45;;;;;;;1.98;1.00;;;;;;;;;;5051639;28;20047;-59
2021/05/22 00:25:12;;;;;;;2.15;0.98;;;;;;;;;;5051757;28;20049;-59
2021/05/22 00:27:38;;;;;;;4.65;0.98;;;;;;;;;;5051944;28;20132;-59
2021/05/22 00:30:06;;;;;;;1.85;0.82;;;;;;;;;;5046128;28;20484;-59
2021/05/22 00:32:32;;;;;;;3.95;1.15;;;;;;;;;;5049045;28;20045;-59
2021/05/22 00:34:58;;;;;;;2.88;1.10;;;;;;;;;;5051404;28;20079;-59
2021/05/22 00:37:25;;;;;;;2.45;1.08;;;;;;;;;;5051417;28;20045;-59
2021/05/22 00:39:51;;;;;;;1.25;0.80;;;;;;;;;;5051871;28;20494;-59
2021/05/22 00:42:18;;;;;;;1.35;0.68;;;;;;;;;;5037250;28;20049;-59
2021/05/22 00:45:03;;;;;;;1.45;0.80;;;;;;;;;;5050653;28;20049;-59
2021/05/22 00:47:29;;;;;;;1.42;0.73;;;;;;;;;;5051314;28;20053;-59
2021/05/22 00:49:56;;;;;;;2.20;0.77;;;;;;;;;;5051570;28;20048;-59
2021/05/22 00:52:22;;;;;;;1.23;0.80;;;;;;;;;;5051276;28;20098;-59
2021/05/22 00:54:48;;;;;;;1.52;1.02;;;;;;;;;;5051359;28;20048;-59
2021/05/22 00:57:16;;;;;;;2.45;0.85;;;;;;;;;;5050765;28;20045;-59
2021/05/22 00:59:43;;;;;;;6.53;0.80;;;;;;;;;;5051453;28;20044;-59
2021/05/22 01:02:10;;;;;;;4.28;0.88;;;;;;;;;;5051240;28;20568;-59
2021/05/22 01:04:37;;;;;;;1.50;0.80;;;;;;;;;;5049463;28;20487;-59
2021/05/22 01:07:03;;;;;;;1.30;0.80;;;;;;;;;;5042250;28;20049;-59
2021/05/22 01:09:31;;;;;;;1.90;1.20;;;;;;;;;;5037285;28;20049;-59
2021/05/22 01:12:01;;;;;;;2.53;0.95;;;;;;;;;;5050922;28;20072;-59
2021/05/22 01:14:37;;;;;;;2.65;0.95;;;;;;;;;;5050805;28;20136;-59
2021/05/22 01:17:04;;;;;;;1.23;0.75;;;;;;;;;;5050946;28;20045;-59
2021/05/22 01:19:49;;;;;;;4.63;1.00;;;;;;;;;;5050972;28;20091;-59
2021/05/22 01:22:15;;;;;;;;;;;;;;;;;;5038234;28;20049;-59
2021/05/22 01:24:49;;;;;;;1.15;0.80;;;;;;;;;;5052473;28;19974;-59
2021/05/22 01:27:16;;;;;;;8.73;1.17;;;;;;;;;;5056306;28;20045;-59
2021/05/22 01:29:43;;;;;;;1.77;1.00;;;;;;;;;;5054702;28;20053;-59
2021/05/22 01:32:09;;;;;;;3.47;0.90;;;;;;;;;;5055175;28;20045;-59
2021/05/22 01:34:36;;;;;;;4.75;1.52;;;;;;;;;;5055182;28;20399;-59
2021/05/22 01:37:03;;;;;;;2.40;0.90;;;;;;;;;;5054554;28;20468;-59
2021/05/22 01:39:29;;;;;;;2.28;1.17;;;;;;;;;;5055183;28;20045;-59
2021/05/22 01:41:56;;;;;;;2.47;0.93;;;;;;;;;;5055299;28;20055;-59
2021/05/22 01:44:24;;;;;;;1.52;0.90;;;;;;;;;;5054688;28;20080;-59
2021/05/22 01:46:52;;;;;;;2.35;0.90;;;;;;;;;;5054596;28;20128;-59
2021/05/22 01:49:19;;;;;;;2.28;1.17;;;;;;;;;;5054778;28;20041;-58
2021/05/22 01:51:46;;;;;;;2.30;1.42;;;;;;;;;;5054525;28;20056;-59
2021/05/22 01:54:13;;;;;;;1.70;1.20;;;;;;;;;;5040118;28;20249;-59
2021/05/22 01:56:40;;;;;;;2.20;1.20;;;;;;;;;;5042667;28;20045;-59
2021/05/22 01:59:06;;;;;;;2.58;1.27;;;;;;;;;;5043546;28;20065;-60
2021/05/22 02:01:33;;;;;;;1.98;1.20;;;;;;;;;;5044179;28;20049;-59
2021/05/22 02:04:04;;;;;;;4.18;1.58;;;;;;;;;;5055050;28;20070;-59
2021/05/22 02:06:34;;;;;;;2.72;1.33;;;;;;;;;;5055068;28;20053;-59
2021/05/22 02:09:01;;;;;;;2.13;1.23;;;;;;;;;;5055484;28;20056;-59
2021/05/22 02:11:29;;;;;;;2.42;1.23;;;;;;;;;;5041365;28;20087;-59
2021/05/22 02:13:56;;;;;;;4.50;1.80;;;;;;;;;;5043656;28;20058;-59
2021/05/22 02:16:25;;;;;;;4.60;1.58;;;;;;;;;;5042639;28;20075;-59
2021/05/22 02:18:54;;;;;;;2.47;1.08;;;;;;;;;;5037098;28;20087;-59
2021/05/22 02:21:23;;;;;;;5.03;1.55;;;;;;;;;;5055393;28;20056;-58
2021/05/22 02:23:49;;;;;;;3.80;1.58;;;;;;;;;;5054422;28;20057;-59
2021/05/22 02:26:16;;;;;;;4.88;1.60;;;;;;;;;;5054476;28;20422;-59
2021/05/22 02:28:44;;;;;;;3.00;1.60;;;;;;;;;;5054491;28;20072;-59
2021/05/22 02:31:11;;;;;;;3.60;1.42;;;;;;;;;;5054334;28;20458;-59
2021/05/22 02:33:38;;;;;;;1.95;1.10;;;;;;;;;;5054305;28;20041;-59
2021/05/22 02:36:05;;;;;;;2.60;1.38;;;;;;;;;;5054605;28;20072;-59
2021/05/22 02:38:33;;;;;;;3.38;1.48;;;;;;;;;;5045674;28;20053;-59
2021/05/22 02:41:01;;;;;;;2.88;1.30;;;;;;;;;;5047025;28;20473;-60
2021/05/22 02:43:28;;;;;;;4.30;1.40;;;;;;;;;;5054426;28;20045;-59
2021/05/22 02:45:55;;;;;;;4.13;1.70;;;;;;;;;;5038293;28;20399;-59
2021/05/22 02:48:22;;;;;;;2.60;1.27;;;;;;;;;;5054608;28;20053;-59
2021/05/22 02:50:50;;;;;;;2.78;1.40;;;;;;;;;;5054107;28;20055;-59
2021/05/22 02:53:21;;;;;;;3.47;1.85;;;;;;;;;;5054069;28;20048;-59
2021/05/22 02:55:49;;;;;;;3.17;1.30;;;;;;;;;;5054073;28;20069;-59
2021/05/22 02:58:16;;;;;;;3.95;1.60;;;;;;;;;;5053848;28;20045;-59
2021/05/22 03:00:43;;;;;;;2.22;1.10;;;;;;;;;;5053860;28;20049;-59
2021/05/22 03:03:10;;;;;;;3.00;1.70;;;;;;;;;;5054589;28;20172;-59
2021/05/22 03:05:37;;;;;;;4.30;1.48;;;;;;;;;;5053735;28;20080;-59
2021/05/22 03:08:03;;;;;;;1.88;1.10;;;;;;;;;;5053788;28;20099;-59
2021/05/22 03:10:30;;;;;;;2.65;1.48;;;;;;;;;;5052490;28;20044;-59
2021/05/22 03:12:56;;;;;;;2.55;1.50;;;;;;;;;;5020212;28;20072;-59
2021/05/22 03:15:22;;;;;;;2.60;1.58;;;;;;;;;;5049881;28;20048;-59
2021/05/22 03:17:49;;;;;;;2.13;0.93;;;;;;;;;;5052192;28;20045;-59
2021/05/22 03:20:15;;;;;;;3.40;1.30;;;;;;;;;;5049803;28;20044;-59
2021/05/22 03:22:42;;;;;;;6.38;1.48;;;;;;;;;;5050394;28;20037;-59
2021/05/22 03:25:09;;;;;;;2.03;1.10;;;;;;;;;;5052888;28;20120;-59
2021/05/22 03:27:36;;;;;;;3.28;1.40;;;;;;;;;;5053136;28;20049;-59
2021/05/22 03:30:04;;;;;;;2.53;1.38;;;;;;;;;;5053640;28;20080;-59
2021/05/22 03:32:30;;;;;;;4.78;1.40;;;;;;;;;;5052786;28;20110;-59
2021/05/22 03:34:56;;;;;;;2.67;1.73;;;;;;;;;;5052578;28;20075;-59
2021/05/22 03:37:22;;;;;;;2.55;1.40;;;;;;;;;;5053200;28;20045;-59
2021/05/22 03:39:49;;;;;;;2.92;1.70;;;;;;;;;;5053198;28;20487;-59
2021/05/22 03:42:15;;;;;;;2.47;1.40;;;;;;;;;;5053883;28;20048;-59
2021/05/22 03:44:41;;;;;;;4.90;2.22;;;;;;;;;;5053091;28;20048;-60
2021/05/22 03:47:08;;;;;;;4.28;1.88;;;;;;;;;;5051827;28;20122;-59
2021/05/22 03:49:35;;;;;;;3.15;1.80;;;;;;;;;;5052799;28;20407;-59
2021/05/22 03:52:01;;;;;;;3.70;1.63;;;;;;;;;;5053046;28;23666;-59
2021/05/22 03:54:27;;;;;;;6.28;1.70;;;;;;;;;;5053376;28;20436;-59
2021/05/22 03:56:54;;;;;;;3.00;1.33;;;;;;;;;;5040350;28;20053;-59
2021/05/22 03:59:20;;;;;;;2.45;1.30;;;;;;;;;;5041373;28;20049;-59
2021/05/22 04:01:46;;;;;;;3.25;1.27;;;;;;;;;;5046133;28;20040;-59
2021/05/22 04:04:13;;;;;;;3.97;1.55;;;;;;;;;;5049492;28;20114;-59
2021/05/22 04:06:39;;;;;;;2.63;1.20;;;;;;;;;;5052417;28;20122;-59
2021/05/22 04:09:05;;;;;;;1.65;1.13;;;;;;;;;;5048656;28;20040;-59
2021/05/22 04:11:32;;;;;;;3.92;1.40;;;;;;;;;;5047550;28;20051;-59
2021/05/22 04:13:58;;;;;;;3.53;1.27;;;;;;;;;;5052217;28;20052;-59
2021/05/22 04:16:25;;;;;;;4.80;1.33;;;;;;;;;;5052220;28;20068;-59
2021/05/22 04:18:51;;;;;;;2.35;1.10;;;;;;;;;;5052063;28;20415;-58
2021/05/22 04:21:17;;;;;;;3.88;1.52;;;;;;;;;;5047194;28;20083;-59
2021/05/22 04:23:44;;;;;;;1.90;1.17;;;;;;;;;;5050939;28;20503;-59
2021/05/22 04:26:10;;;;;;;3.63;1.23;;;;;;;;;;5052287;28;20052;-59
2021/05/22 04:28:36;;;;;;;1.88;0.77;;;;;;;;;;5048639;28;20048;-59
2021/05/22 04:31:03;;;;;;;2.60;1.33;;;;;;;;;;5038310;28;20036;-59
2021/05/22 04:33:29;;;;;;;5.53;1.27;;;;;;;;;;5050229;28;20072;-59
2021/05/22 04:35:55;;;;;;;1.90;1.10;;;;;;;;;;5040564;28;20047;-59
2021/05/22 04:38:22;;;;;;;1.90;1.00;;;;;;;;;;5047891;28;20041;-59
2021/05/22 04:40:48;;;;;;;2.45;1.05;;;;;;;;;;5048833;28;20052;-59
2021/05/22 04:43:15;;;;;;;2.50;1.10;;;;;;;;;;5047526;28;20041;-59
2021/05/22 04:45:41;;;;;;;2.13;1.10;;;;;;;;;;5032677;28;20053;-59
2021/05/22 04:48:08;;;;;;;2.60;1.42;;;;;;;;;;5051802;28;20075;-59
2021/05/22 04:50:35;;;;;;;1.58;0.80;;;;;;;;;;5039691;28;20045;-59
2021/05/22 04:53:01;;;;;;;4.43;1.25;;;;;;;;;;5036784;28;20044;-59
2021/05/22 04:55:27;;;;;;;5.00;1.23;;;;;;;;;;5033040;28;20038;-59
2021/05/22 04:57:54;;;;;;;2.65;1.27;;;;;;;;;;5046586;28;20045;-59
2021/05/22 05:00:20;;;;;;;2.45;1.20;;;;;;;;;;5036766;28;20491;-59
2021/05/22 05:02:47;;;;;;;4.13;1.10;;;;;;;;;;5046051;28;20053;-60
2021/05/22 05:05:13;;;;;;;3.28;1.55;;;;;;;;;;5042881;28;20057;-59
2021/05/22 05:07:41;;;;;;;2.50;1.25;;;;;;;;;;5043222;28;20037;-59
2021/05/22 05:10:08;;;;;;;2.75;1.27;;;;;;;;;;5045359;28;20551;-59
2021/05/22 05:12:35;;;;;;;2.42;1.25;;;;;;;;;;5037255;28;20085;-59
2021/05/22 05:15:01;;;;;;;2.67;1.20;;;;;;;;;;5046240;28;20049;-59
2021/05/22 05:17:27;;;;;;;2.63;1.50;;;;;;;;;;5042216;28;20048;-59
2021/05/22 05:19:54;;;;;;;2.45;1.70;;;;;;;;;;5045422;28;20597;-59
2021/05/22 05:22:20;;;;;;;2.58;1.23;;;;;;;;;;5045513;28;20041;-59
2021/05/22 05:24:46;;;;;;;6.60;1.42;;;;;;;;;;5047277;28;20415;-59
2021/05/22 05:27:13;;;;;;;2.55;0.98;;;;;;;;;;5048337;28;20080;-59
2021/05/22 05:29:40;;;;;;;1.98;0.90;;;;;;;;;;5043711;28;20045;-59
2021/05/22 05:32:10;;;;;;;2.10;1.10;;;;;;;;;;5048153;28;20485;-59
2021/05/22 05:34:38;;;;;;;2.22;1.08;;;;;;;;;;5047981;28;20045;-59
2021/05/22 05:37:04;;;;;;;1.90;1.00;;;;;;;;;;5048223;28;20054;-60
2021/05/22 05:39:31;;;;;;;1.73;1.00;;;;;;;;;;5049935;28;20069;-60
2021/05/22 05:41:57;;;;;;;2.15;1.30;;;;;;;;;;5048868;28;20049;-60
2021/05/22 05:44:23;;;;;;;2.88;1.05;;;;;;;;;;5044439;28;20081;-60
2021/05/22 05:46:50;;;;;;;1.52;1.02;;;;;;;;;;5042202;28;20052;-59
2021/05/22 05:49:16;;;;;;;3.55;0.88;;;;;;;;;;5050931;28;20041;-59
2021/05/22 05:51:42;;;;;;;2.40;1.35;;;;;;;;;;5051044;28;20044;-59
2021/05/22 05:54:09;;;;;;;2.33;1.30;;;;;;;;;;5038272;28;20049;-59
2021/05/22 05:56:35;;;;;;;2.90;1.15;;;;;;;;;;5048221;28;20041;-59
2021/05/22 05:59:01;;;;;;;3.65;1.25;;;;;;;;;;5050499;28;20498;-59
2021/05/22 06:01:27;;;;;;;3.25;1.10;;;;;;;;;;5050688;28;20415;-59
2021/05/22 06:03:54;;;;;;;2.30;1.30;;;;;;;;;;5033821;28;20451;-59
2021/05/22 06:06:20;;;;;;;1.58;0.82;;;;;;;;;;5036264;28;20056;-60
2021/05/22 06:08:47;;;;;;;2.70;1.15;;;;;;;;;;5050018;28;20771;-59
2021/05/22 06:11:15;;;;;;;3.20;1.50;;;;;;;;;;5047140;28;20053;-59
2021/05/22 06:13:42;;;;;;;7.05;2.10;;;;;;;;;;5048655;28;20495;-60
2021/05/22 06:18:36;;;;;;;3.22;1.80;;;;;;;;;;5049098;28;20132;-59
2021/05/22 06:21:03;;;;;;;3.35;1.45;;;;;;;;;;5038912;28;20518;-59
2021/05/22 06:23:29;;;;;;;3.83;1.45;;;;;;;;;;5041892;28;20507;-59
2021/05/22 06:25:56;;;;;;;2.58;0.65;;;;;;;;;;5040410;28;20052;-59
2021/05/22 06:28:22;;;;;;;2.10;1.13;;;;;;;;;;5044626;28;20044;-60
2021/05/22 06:30:49;;;;;;;3.97;1.38;;;;;;;;;;5041709;28;20447;-59
2021/05/22 06:33:15;;;;;;;2.33;1.13;;;;;;;;;;5045831;28;20063;-59
2021/05/22 06:35:42;;;;;;;3.42;1.30;;;;;;;;;;5044739;28;20037;-60
2021/05/22 06:38:09;;;;;;;3.65;0.93;;;;;;;;;;5041107;28;20092;-60
2021/05/22 06:40:36;;;;;;;4.68;1.20;;;;;;;;;;5042380;28;20224;-59
2021/05/22 06:43:02;;;;;;;3.72;1.20;;;;;;;;;;5047632;28;20049;-59
2021/05/22 06:45:38;;;;;;;2.75;1.15;;;;;;;;;;5051436;28;20060;-59
2021/05/22 06:48:06;;;;;;;2.03;1.02;;;;;;;;;;5040680;28;20044;-59
2021/05/22 06:50:33;;;;;;;1.95;0.82;;;;;;;;;;5044685;28;20065;-58
2021/05/22 06:52:59;;;;;;;7.97;1.25;;;;;;;;;;5040840;28;20049;-60
2021/05/22 06:55:25;;;;;;;2.92;1.00;;;;;;;;;;5049981;28;20042;-59
2021/05/22 06:57:52;;;;;;;2.20;1.10;;;;;;;;;;5048960;28;20072;-60
2021/05/22 07:00:18;;;;;;;2.00;0.80;;;;;;;;;;5039684;28;20042;-59
2021/05/22 07:02:45;;;;;;;2.13;0.95;;;;;;;;;;5051081;28;20106;-60
2021/05/22 07:05:11;;;;;;;3.25;1.05;;;;;;;;;;5050846;28;20047;-60
2021/05/22 07:07:39;;;;;;;5.00;1.20;;;;;;;;;;5051672;28;20037;-60
2021/05/22 07:10:09;;;;;;;1.92;1.05;;;;;;;;;;5044795;28;20073;-60
2021/05/22 07:12:35;;;;;;;1.80;1.08;;;;;;;;;;5042664;28;20064;-59
2021/05/22 07:15:01;;;;;;;1.73;1.08;;;;;;;;;;5051022;28;20041;-60
2021/05/22 07:17:28;;;;;;;9.98;1.98;;;;;;;;;;5049556;28;20037;-59
2021/05/22 07:19:54;;;;;;;3.55;1.20;;;;;;;;;;5050304;28;20052;-60
2021/05/22 07:22:20;;;;;;;4.95;1.70;;;;;;;;;;5048497;28;20041;-60
2021/05/22 07:24:48;;;;;;;2.78;1.13;;;;;;;;;;5047653;28;20055;-60
2021/05/22 07:27:15;;;;;;;2.25;1.08;;;;;;;;;;5041335;28;20496;-60
2021/05/22 07:29:42;;;;;;;1.50;0.90;;;;;;;;;;5047298;28;20052;-60
2021/05/22 07:32:08;;;;;;;5.45;1.30;;;;;;;;;;5051136;28;20124;-60
2021/05/22 07:34:35;;;;;;;1.65;1.05;;;;;;;;;;5052835;28;20072;-60
2021/05/22 07:37:01;;;;;;;2.17;1.13;;;;;;;;;;5052946;28;20041;-60
2021/05/22 07:39:27;;;;;;;2.15;1.00;;;;;;;;;;5051531;28;20519;-60
2021/05/22 07:41:54;;;;;;;1.80;1.02;;;;;;;;;;5051166;28;20053;-60
2021/05/22 07:44:20;;;;;;;2.20;1.02;;;;;;;;;;5048890;28;20053;-60
2021/05/22 07:46:46;;;;;;;3.25;1.10;;;;;;;;;;5039367;28;20041;-60
2021/05/22 07:49:13;;;;;;;1.65;1.02;;;;;;;;;;5050858;28;20049;-60
2021/05/22 07:51:43;;;;;;;3.80;1.10;;;;;;;;;;5032554;28;20062;-59
2021/05/22 07:54:10;;;;;;;3.20;0.90;;;;;;;;;;5036716;28;20577;-59
2021/05/22 07:56:36;;;;;;;1.63;0.80;;;;;;;;;;5043474;28;20063;-60
2021/05/22 07:59:02;;;;;;;1.75;1.00;;;;;;;;;;5047591;28;20584;-59
2021/05/22 08:01:29;;;;;;;18.15;1.52;;;;;;;;;;5044930;28;20056;-58
2021/05/22 08:03:55;;;;;;;2.00;1.10;;;;;;;;;;5048197;28;20076;-59
2021/05/22 08:06:22;;;;;;;3.10;0.93;;;;;;;;;;5047811;28;20041;-59
2021/05/22 08:08:48;;;;;;;1.73;0.93;;;;;;;;;;5043903;28;20458;-58
2021/05/22 08:11:15;;;;;;;1.80;0.90;;;;;;;;;;5043784;28;20061;-59
2021/05/22 08:13:42;;;;;;;1.30;0.88;;;;;;;;;;5044061;28;20049;-60
2021/05/22 08:16:08;;;;;;;1.80;0.93;;;;;;;;;;5044278;28;20074;-60
2021/05/22 08:18:36;;;;;;;1.55;0.80;;;;;;;;;;5043289;28;20490;-59
2021/05/22 08:21:02;;;;;;;4.03;1.30;;;;;;;;;;5042283;28;20510;-59
2021/05/22 08:23:28;;;;;;;2.80;1.42;;;;;;;;;;5042777;28;20124;-60
2021/05/22 08:25:57;;;;;;;3.53;1.33;;;;;;;;;;5047346;28;20094;-60
2021/05/22 08:28:25;;;;;;;4.03;1.48;;;;;;;;;;5035816;28;20042;-59
2021/05/22 08:30:51;;;;;;;2.13;1.23;;;;;;;;;;5047500;28;20402;-60
2021/05/22 08:33:18;;;;;;;5.75;1.33;;;;;;;;;;5050260;28;20049;-60
2021/05/22 08:35:44;;;;;;;2.20;1.20;;;;;;;;;;5047297;28;20052;-60
2021/05/22 08:38:11;;;;;;;1.88;0.98;;;;;;;;;;5041473;28;20080;-59
2021/05/22 08:40:37;;;;;;;4.50;1.60;;;;;;;;;;5031590;28;20515;-60
2021/05/22 08:43:04;;;;;;;2.13;1.23;;;;;;;;;;5034431;28;20503;-60
2021/05/22 08:45:30;;;;;;;4.00;1.25;;;;;;;;;;5045534;28;20052;-60
2021/05/22 08:47:58;;;;;;;2.17;1.25;;;;;;;;;;5046117;28;20146;-60
2021/05/22 08:50:24;;;;;;;2.47;1.10;;;;;;;;;;5047794;28;20411;-59
2021/05/22 08:52:54;;;;;;;3.70;1.30;;;;;;;;;;5048119;28;20052;-59
2021/05/22 08:55:21;;;;;;;3.72;1.30;;;;;;;;;;5049739;28;20037;-60
2021/05/22 08:57:48;;;;;;;4.97;1.20;;;;;;;;;;5049516;28;20049;-59
2021/05/22 09:00:16;;;;;;;4.15;1.40;;;;;;;;;;5050552;28;20053;-59
2021/05/22 09:02:43;;;;;;;3.65;1.80;;;;;;;;;;5048419;28;20048;-60
2021/05/22 09:05:12;;;;;;;4.68;1.73;;;;;;;;;;5047803;28;20107;-60
2021/05/22 09:07:40;;;;;;;3.63;1.40;;;;;;;;;;5049470;28;20060;-60
2021/05/22 09:10:09;;;;;;;3.60;2.05;;;;;;;;;;5047778;28;20037;-65
2021/05/22 09:12:36;;;;;;;3.15;1.83;;;;;;;;;;5051392;28;20521;-60
2021/05/22 09:15:08;;;;;;;2.65;1.50;;;;;;;;;;5054095;28;20049;-59
2021/05/22 09:17:35;;;;;;;5.43;1.42;;;;;;;;;;5050688;28;20136;-60
2021/05/22 09:20:12;;;;;;;3.08;1.65;;;;;;;;;;5050520;28;20041;-61
2021/05/22 09:22:38;;;;;;;4.10;1.73;;;;;;;;;;5051206;28;20068;-60
2021/05/22 09:25:06;;;;;;;4.22;1.75;;;;;;;;;;5050907;28;20041;-58
2021/05/22 09:27:36;;;;;;;3.42;1.70;;;;;;;;;;5050808;28;20053;-60
2021/05/22 09:30:05;;;;;;;4.43;2.22;;;;;;;;;;5051775;28;20045;-59
2021/05/22 09:32:31;;;;;;;4.35;2.10;;;;;;;;;;5042020;28;20407;-60
2021/05/22 09:34:57;;;;;;;4.20;1.90;;;;;;;;;;5040486;28;20480;-59
2021/05/22 09:37:24;;;;;;;3.50;1.85;;;;;;;;;;5038512;28;20055;-60
2021/05/22 09:39:52;;;;;;;5.43;2.90;;;;;;;;;;5034428;28;20049;-60
2021/05/22 09:42:25;;;;;;;4.72;2.35;;;;;;;;;;5051522;28;20055;-61
2021/05/22 09:44:52;;;;;;;5.43;3.70;;;;;;;;;;5039383;28;20041;-60
2021/05/22 09:47:18;;;;;;;6.07;3.33;;;;;;;;;;5043640;28;20079;-65
2021/05/22 09:49:48;;;;;;;4.95;3.20;;;;;;;;;;5044865;28;20041;-65
2021/05/22 09:52:18;;;;;;;4.85;3.42;;;;;;;;;;5054551;28;20052;-64
2021/05/22 09:54:54;;;;;;;4.95;3.03;;;;;;;;;;5054489;28;20406;-66
2021/05/22 09:57:21;;;;;;;5.30;2.50;;;;;;;;;;5051032;28;20049;-63
2021/05/22 10:00:06;;;;;;;4.10;2.50;;;;;;;;;;5052476;28;20053;-65
2021/05/22 10:02:53;;;;;;;4.40;2.83;;;;;;;;;;5052992;28;20044;-64
2021/05/22 10:05:20;;;;;;;9.38;2.97;;;;;;;;;;5053557;28;20040;-63
2021/05/22 10:07:48;;;;;;;4.60;2.97;;;;;;;;;;5053874;28;20495;-60
2021/05/22 10:10:16;;;;;;;3.47;2.53;;;;;;;;;;5052655;28;20045;-63
2021/05/22 10:12:46;;;;;;;5.63;3.00;;;;;;;;;;5050662;28;20495;-63
2021/05/22 10:15:17;;;;;;;7.80;3.13;;;;;;;;;;5053668;28;20072;-63
2021/05/22 10:17:44;;;;;;;7.55;2.60;;;;;;;;;;5050878;28;20098;-65
2021/05/22 10:20:11;;;;;;;7.15;3.00;;;;;;;;;;5053640;28;20124;-64
2021/05/22 10:22:40;;;;;;;6.07;3.33;;;;;;;;;;5053378;28;20057;-64
2021/05/22 10:25:07;;;;;;;6.00;3.55;;;;;;;;;;5053946;28;20127;-64
2021/05/22 10:27:34;;;;;;;5.65;3.60;;;;;;;;;;5047926;28;20479;-65
2021/05/22 10:30:02;;;;;;;4.63;3.17;;;;;;;;;;5052864;28;20049;-64
2021/05/22 10:32:28;;;;;;;7.15;3.53;;;;;;;;;;5051649;28;20049;-63
2021/05/22 10:34:55;;;;;;;7.57;3.83;;;;;;;;;;5052666;28;20499;-63
2021/05/22 10:37:37;;;;;;;4.60;3.08;;;;;;;;;;5053206;28;20123;-59
2021/05/22 10:40:04;;;;;;;5.18;3.40;;;;;;;;;;5047438;28;20529;-61
2021/05/22 10:42:30;;;;;;;8.55;3.67;;;;;;;;;;5048986;28;20052;-61
2021/05/22 10:44:57;;;;;;;6.38;3.72;;;;;;;;;;5050970;28;20409;-60
2021/05/22 10:47:28;;;;;;;6.30;3.22;;;;;;;;;;5051859;28;20123;-60
2021/05/22 10:49:56;;;;;;;6.70;3.25;;;;;;;;;;5051962;28;20052;-61
2021/05/22 10:52:25;;;;;;;7.65;3.20;;;;;;;;;;5050681;28;20053;-59
2021/05/22 10:55:00;;;;;;;7.15;3.13;;;;;;;;;;5050209;28;20059;-59
2021/05/22 10:57:27;;;;;;;6.68;3.00;;;;;;;;;;5050153;28;20064;-60
2021/05/22 11:00:12;;;;;;;5.80;3.40;;;;;;;;;;5049745;28;20071;-59
2021/05/22 11:02:40;;;;;;;7.38;3.58;;;;;;;;;;5042985;28;21045;-59
2021/05/22 11:05:18;;;;;;;6.25;2.72;;;;;;;;;;5048313;28;20061;-59
2021/05/22 11:07:45;;;;;;;8.25;3.92;;;;;;;;;;5047912;28;20045;-60
2021/05/22 11:10:31;;;;;;;7.00;3.50;;;;;;;;;;5048280;28;20037;-62
2021/05/22 11:12:58;;;;;;;6.45;3.63;;;;;;;;;;5050701;28;20052;-59
2021/05/22 11:15:45;;;;;;;7.75;3.75;;;;;;;;;;5051153;28;20123;-59
2021/05/22 11:18:12;;;;;;;8.18;4.35;;;;;;;;;;5052015;28;20048;-59
2021/05/22 11:20:40;;;;;;;9.30;4.80;;;;;;;;;;5048635;28;20048;-59
2021/05/22 11:23:06;;;;;;;7.28;4.55;;;;;;;;;;5048036;28;20044;-58
2021/05/22 11:25:46;;;;;;;8.65;4.00;;;;;;;;;;5050410;28;20057;-59
2021/05/22 11:28:21;;;;;;;5.93;3.60;;;;;;;;;;5047740;28;20057;-59
2021/05/22 11:30:47;;;;;;;;;;;;;;;;;;5048826;28;20037;-59
2021/05/22 11:33:22;;;;;;;6.95;3.53;;;;;;;;;;5049181;28;20387;-59
2021/05/22 11:35:51;;;;;;;8.65;3.30;;;;;;;;;;5043539;28;20045;-60
2021/05/22 11:38:17;;;;;;;7.05;3.83;;;;;;;;;;5048660;28;20080;-60
2021/05/22 11:40:44;;;;;;;12.60;3.88;;;;;;;;;;5052141;28;20084;-60
2021/05/22 11:43:18;;;;;;;9.10;4.38;;;;;;;;;;5043144;28;20481;-60
2021/05/22 11:45:47;;;;;;;7.35;4.25;;;;;;;;;;5048944;28;20037;-60
2021/05/22 11:48:28;;;;;;;8.18;3.85;;;;;;;;;;5040874;28;20080;-59
2021/05/22 11:51:19;;;;;;;4.85;2.95;;;;;;;;;;5044743;28;20049;-60
2021/05/22 11:54:02;;;;;;;4.13;2.58;;;;;;;;;;5042966;28;20079;-59
2021/05/22 11:56:30;;;;;;;4.10;2.50;;;;;;;;;;5048398;28;20049;-59
2021/05/22 11:58:58;;;;;;;5.28;3.10;;;;;;;;;;5045785;28;20487;-59
2021/05/22 12:01:32;;;;;;;3.88;2.88;;;;;;;;;;5041319;28;20057;-58
2021/05/22 12:04:01;;;;;;;4.07;2.75;;;;;;;;;;5044839;28;20388;-59
2021/05/22 12:06:41;;;;;;;5.85;3.22;;;;;;;;;;5051637;28;20052;-59
2021/05/22 12:09:09;;;;;;;2.90;1.85;;;;;;;;;;5049753;28;20045;-58
2021/05/22 12:11:38;;;;;;;4.85;2.55;;;;;;;;;;5044972;28;20044;-59
2021/05/22 12:14:06;;;;;;;4.28;2.80;;;;;;;;;;5043673;28;20079;-59
2021/05/22 12:16:33;;;;;;;4.40;2.78;;;;;;;;;;5048250;28;20486;-59
2021/05/22 12:19:13;;;;;;;5.03;3.33;;;;;;;;;;5037534;28;20037;-58
2021/05/22 12:21:39;;;;;;;6.25;2.85;;;;;;;;;;5045802;28;20052;-58
2021/05/22 12:24:12;;;;;;;6.38;3.45;;;;;;;;;;5050862;28;20053;-57
2021/05/22 12:26:40;;;;;;;9.70;4.80;;;;;;;;;;5043593;28;20075;-58
2021/05/22 12:29:09;;;;;;;7.90;3.67;;;;;;;;;;5045011;28;20041;-57
2021/05/22 12:31:35;;;;;;;6.20;4.18;;;;;;;;;;5044357;28;20500;-58
2021/05/22 12:34:03;;;;;;;6.13;3.83;;;;;;;;;;5047199;28;20087;-57
2021/05/22 12:36:32;;;;;;;6.75;4.30;;;;;;;;;;5045177;28;20057;-58
2021/05/22 12:38:58;;;;;;;5.45;3.47;;;;;;;;;;5047468;28;20441;-58
2021/05/22 12:41:31;;;;;;;7.38;3.58;;;;;;;;;;5043928;28;20068;-58
2021/05/22 12:43:58;;;;;;;6.22;3.50;;;;;;;;;;5046145;28;20045;-58
2021/05/22 12:46:27;;;;;;;9.63;3.28;;;;;;;;;;5036416;28;20072;-57
2021/05/22 12:49:06;;;;;;;4.63;3.33;;;;;;;;;;5036221;28;20045;-58
2021/05/22 12:51:33;;;;;;;6.60;3.55;;;;;;;;;;5046296;28;20041;-57
2021/05/22 12:53:59;;;;;;;5.88;3.05;;;;;;;;;;5047708;28;20052;-58
2021/05/22 12:56:25;;;;;;;6.15;3.97;;;;;;;;;;5045580;28;20042;-58
2021/05/22 12:59:11;;;;;;;8.32;4.22;;;;;;;;;;5045979;28;20045;-58
2021/05/22 13:01:37;;;;;;;4.47;2.97;;;;;;;;;;5045858;28;20161;-57
2021/05/22 13:04:04;;;;;;;6.45;3.47;;;;;;;;;;5036607;28;25155;-57
2021/05/22 13:06:30;;;;;;;7.72;3.67;;;;;;;;;;5045997;28;20057;-58
2021/05/22 13:09:07;;;;;;;5.50;3.60;;;;;;;;;;5037596;28;20037;-58
2021/05/22 13:11:33;;;;;;;6.28;3.40;;;;;;;;;;5042731;28;20052;-58
2021/05/22 13:14:04;;;;;;;9.93;3.35;;;;;;;;;;5048867;28;20052;-58
2021/05/22 13:16:30;;;;;;;5.65;3.45;;;;;;;;;;5043557;28;20073;-58
2021/05/22 13:18:57;;;;;;;4.35;2.92;;;;;;;;;;5048463;28;20060;-58
2021/05/22 13:21:31;;;;;;;4.70;3.10;;;;;;;;;;5041647;28;20518;-57
2021/05/22 13:23:57;;;;;;;5.50;3.22;;;;;;;;;;5053507;28;20552;-58
2021/05/22 13:26:25;;;;;;;7.85;3.58;;;;;;;;;;5046484;28;20044;-58
2021/05/22 13:28:53;;;;;;;7.53;3.53;;;;;;;;;;5053503;28;20048;-58
2021/05/22 13:31:29;;;;;;;7.70;3.88;;;;;;;;;;5048991;28;20099;-59
2021/05/22 13:34:01;;;;;;;6.57;3.92;;;;;;;;;;5052883;28;20096;-58
2021/05/22 13:36:27;;;;;;;5.45;2.97;;;;;;;;;;5047257;28;20073;-57
2021/05/22 13:38:54;;;;;;;4.57;2.90;;;;;;;;;;5048137;28;20091;-58
2021/05/22 13:41:31;;;;;;;6.35;3.63;;;;;;;;;;5052142;28;20069;-57
2021/05/22 13:43:57;;;;;;;4.68;3.03;;;;;;;;;;5044702;28;20043;-58
2021/05/22 13:46:24;;;;;;;9.95;3.53;;;;;;;;;;5051706;28;20056;-58
2021/05/22 13:48:50;;;;;;;5.95;3.25;;;;;;;;;;5049440;28;20095;-58
2021/05/22 13:51:17;;;;;;;4.60;3.47;;;;;;;;;;5055539;28;20410;-59
2021/05/22 13:53:43;;;;;;;7.20;3.83;;;;;;;;;;5052725;28;20049;-57
2021/05/22 13:56:09;;;;;;;4.28;2.97;;;;;;;;;;5052043;28;20091;-57
2021/05/22 13:58:37;;;;;;;4.68;2.67;;;;;;;;;;5051862;28;20037;-56
2021/05/22 14:01:04;;;;;;;5.28;3.28;;;;;;;;;;5052811;28;20055;-58
2021/05/22 14:03:30;;;;;;;4.45;3.20;;;;;;;;;;5044982;28;20049;-59
2021/05/22 14:05:56;;;;;;;4.97;3.22;;;;;;;;;;5053596;28;20048;-58
2021/05/22 14:08:23;;;;;;;5.47;3.80;;;;;;;;;;5052937;28;20037;-58
2021/05/22 14:10:49;;;;;;;4.40;3.30;;;;;;;;;;5048242;28;20068;-58
2021/05/22 14:13:15;;;;;;;5.68;3.50;;;;;;;;;;5046226;28;20159;-57
2021/05/22 14:15:42;;;;;;;9.50;4.85;;;;;;;;;;5047605;28;20048;-57
2021/05/22 14:18:09;;;;;;;7.47;3.70;;;;;;;;;;5053875;28;20053;-57
2021/05/22 14:20:35;;;;;;;4.93;3.38;;;;;;;;;;5054873;28;20494;-58
2021/05/22 14:23:01;;;;;;;7.18;3.03;;;;;;;;;;5056934;28;20052;-57
2021/05/22 14:25:28;;;;;;;7.00;3.00;;;;;;;;;;5051778;28;20045;-57
2021/05/22 14:27:54;;;;;;;4.90;2.92;;;;;;;;;;5055509;28;20521;-58
2021/05/22 14:30:21;;;;;;;4.72;3.17;;;;;;;;;;5054275;28;21140;-58
2021/05/22 14:32:47;;;;;;;8.07;3.67;;;;;;;;;;5045891;28;20045;-59
2021/05/22 14:35:17;;;;;;;5.57;3.60;;;;;;;;;;5048366;28;20048;-58
2021/05/22 14:37:43;;;;;;;4.68;2.97;;;;;;;;;;5055766;28;20056;-58
2021/05/22 14:40:11;;;;;;;5.03;2.83;;;;;;;;;;5048148;28;20124;-58
2021/05/22 14:42:37;;;;;;;4.88;2.95;;;;;;;;;;5035075;28;20056;-58
2021/05/22 14:45:05;;;;;;;4.20;2.97;;;;;;;;;;5050863;28;20132;-57
2021/05/22 14:47:31;;;;;;;7.00;2.30;;;;;;;;;;5048517;28;20418;-58
2021/05/22 14:49:58;;;;;;;3.08;2.00;;;;;;;;;;5045055;28;20190;-58